Página principal
METAR-TAF:

METAR-TAF

Aeroportos :

Resolute, Nunavut, Canadá

latitude: 74-43N, longitude: 094-59W, altura: 67 m

Observação actual do tempo

O boletim foi feito há 39 minutos, às 04:00 UTC
Vento 8 kt de norte
Temperatura -34°C
Humidade 67%
Pressão 1023 hPa
Visibilidade: 24.1 km
Céu limpo
cristais de gelo

METAR: CYRB 210400Z 35008KT 15SM IC SKC M34/M38 A3020 RMK SLP241

Hora: 22:39 (04:39 UTC)

Previsão

O boletim foi feito há 5 horas e 1 minutos, às 23:38 UTC
Previsão válida de 21 às 00 UTC a 21 às 24 UTC
Vento 8 kt de nor-noroeste
Visibilidade: 10 km
Céu limpo
cristais de gelo

TAF: CYRB 202338Z 2100/2124 33008KT P6SM IC SKC RMK NXT FCST BY 210600Z

Observações e previsões do tempo de mais de 4000 aeroportos (mensagens METAR e TAF).

As estações disponíveis são os pontos amarelos e vermelhos sobre o mapa.

Mova o rato sobre o mapa para ver o nome da estação.

Depois clique no ponto para visualizar as observações e previsões meteorológicas.

Para alterar o mapa : clique nos botões verdes com uma cruz preta para aumentar o zoom; no botão verde com uma pitada de zoom; ou nas setas verdes para mapas adjacentes.


METAR-TAF: